sensor_id;sensor_type;location;lat;lon;timestamp;pressure;altitude;pressure_sealevel;temperature;humidity
59757;BME280;45631;51.962;5.974;2022-11-03T00:01:36;101343.75;;;10.04;100.00
59757;BME280;45631;51.962;5.974;2022-11-03T00:04:09;101342.72;;;10.06;100.00
59757;BME280;45631;51.962;5.974;2022-11-03T00:06:39;101340.16;;;10.05;100.00
59757;BME280;45631;51.962;5.974;2022-11-03T00:09:09;101345.41;;;10.05;100.00
59757;BME280;45631;51.962;5.974;2022-11-03T00:11:39;101333.13;;;10.05;100.00
59757;BME280;45631;51.962;5.974;2022-11-03T00:14:08;101333.88;;;10.07;100.00
59757;BME280;45631;51.962;5.974;2022-11-03T00:16:38;101330.34;;;10.08;100.00
59757;BME280;45631;51.962;5.974;2022-11-03T00:19:08;101331.34;;;10.06;100.00
59757;BME280;45631;51.962;5.974;2022-11-03T00:21:36;101327.88;;;10.05;100.00
59757;BME280;45631;51.962;5.974;2022-11-03T00:24:05;101327.78;;;10.07;100.00
59757;BME280;45631;51.962;5.974;2022-11-03T00:26:36;101323.88;;;10.14;100.00
59757;BME280;45631;51.962;5.974;2022-11-03T00:29:07;101323.28;;;10.09;100.00
59757;BME280;45631;51.962;5.974;2022-11-03T00:31:38;101320.84;;;10.06;100.00
59757;BME280;45631;51.962;5.974;2022-11-03T00:34:07;101316.50;;;10.05;100.00
59757;BME280;45631;51.962;5.974;2022-11-03T00:36:38;101310.31;;;10.06;100.00
59757;BME280;45631;51.962;5.974;2022-11-03T00:39:07;101311.09;;;10.08;100.00
59757;BME280;45631;51.962;5.974;2022-11-03T00:41:36;101306.69;;;10.08;100.00
59757;BME280;45631;51.962;5.974;2022-11-03T00:44:04;101287.44;;;10.08;100.00
59757;BME280;45631;51.962;5.974;2022-11-03T00:46:33;101283.72;;;10.12;100.00
59757;BME280;45631;51.962;5.974;2022-11-03T00:49:03;101290.59;;;10.14;100.00
59757;BME280;45631;51.962;5.974;2022-11-03T00:51:32;101282.78;;;10.13;100.00
59757;BME280;45631;51.962;5.974;2022-11-03T00:54:03;101275.22;;;10.07;100.00
59757;BME280;45631;51.962;5.974;2022-11-03T00:56:33;101268.03;;;10.10;100.00
59757;BME280;45631;51.962;5.974;2022-11-03T00:59:02;101269.97;;;10.07;100.00
59757;BME280;45631;51.962;5.974;2022-11-03T01:01:32;101262.78;;;10.10;100.00
59757;BME280;45631;51.962;5.974;2022-11-03T01:04:14;101263.72;;;10.09;100.00
59757;BME280;45631;51.962;5.974;2022-11-03T01:07:08;101254.31;;;10.05;100.00
59757;BME280;45631;51.962;5.974;2022-11-03T01:09:38;101243.69;;;10.07;100.00
59757;BME280;45631;51.962;5.974;2022-11-03T01:12:09;101245.22;;;10.11;100.00
59757;BME280;45631;51.962;5.974;2022-11-03T01:14:39;101243.88;;;10.04;100.00
59757;BME280;45631;51.962;5.974;2022-11-03T01:17:09;101245.00;;;10.00;100.00
59757;BME280;45631;51.962;5.974;2022-11-03T01:19:39;101245.56;;;10.05;100.00
59757;BME280;45631;51.962;5.974;2022-11-03T01:22:07;101233.63;;;9.99;100.00
59757;BME280;45631;51.962;5.974;2022-11-03T01:24:37;101224.81;;;10.00;100.00
59757;BME280;45631;51.962;5.974;2022-11-03T01:27:05;101229.38;;;9.96;100.00
59757;BME280;45631;51.962;5.974;2022-11-03T01:29:33;101220.94;;;9.91;100.00
59757;BME280;45631;51.962;5.974;2022-11-03T01:32:02;101218.13;;;9.94;100.00
59757;BME280;45631;51.962;5.974;2022-11-03T01:34:30;101228.44;;;9.97;100.00
59757;BME280;45631;51.962;5.974;2022-11-03T01:36:59;101224.22;;;9.95;100.00
59757;BME280;45631;51.962;5.974;2022-11-03T01:39:28;101210.16;;;9.96;100.00
59757;BME280;45631;51.962;5.974;2022-11-03T01:41:56;101213.88;;;9.92;100.00
59757;BME280;45631;51.962;5.974;2022-11-03T01:44:34;101202.03;;;9.85;100.00
59757;BME280;45631;51.962;5.974;2022-11-03T01:47:14;101195.75;;;9.87;100.00
59757;BME280;45631;51.962;5.974;2022-11-03T01:49:52;101192.03;;;9.91;100.00
59757;BME280;45631;51.962;5.974;2022-11-03T01:52:25;101197.44;;;9.88;100.00
59757;BME280;45631;51.962;5.974;2022-11-03T01:54:59;101195.06;;;9.84;100.00
59757;BME280;45631;51.962;5.974;2022-11-03T01:57:33;101186.19;;;9.86;100.00
59757;BME280;45631;51.962;5.974;2022-11-03T02:00:04;101187.78;;;9.89;100.00
59757;BME280;45631;51.962;5.974;2022-11-03T02:02:33;101182.06;;;9.96;100.00
59757;BME280;45631;51.962;5.974;2022-11-03T02:05:03;101178.97;;;9.90;100.00
59757;BME280;45631;51.962;5.974;2022-11-03T02:07:37;101173.97;;;9.85;100.00
59757;BME280;45631;51.962;5.974;2022-11-03T02:10:08;101177.53;;;9.84;100.00
59757;BME280;45631;51.962;5.974;2022-11-03T02:12:36;101177.19;;;9.90;100.00
59757;BME280;45631;51.962;5.974;2022-11-03T02:15:07;101178.31;;;9.86;100.00
59757;BME280;45631;51.962;5.974;2022-11-03T02:17:36;101163.66;;;9.82;100.00
59757;BME280;45631;51.962;5.974;2022-11-03T02:20:09;101161.09;;;9.80;100.00
59757;BME280;45631;51.962;5.974;2022-11-03T02:23:07;101164.38;;;9.84;100.00
59757;BME280;45631;51.962;5.974;2022-11-03T02:25:45;101162.78;;;9.81;100.00
59757;BME280;45631;51.962;5.974;2022-11-03T02:28:15;101162.78;;;9.81;100.00
59757;BME280;45631;51.962;5.974;2022-11-03T02:30:49;101157.53;;;9.81;100.00
59757;BME280;45631;51.962;5.974;2022-11-03T02:33:30;101149.75;;;9.80;100.00
59757;BME280;45631;51.962;5.974;2022-11-03T02:36:06;101135.50;;;9.84;100.00
59757;BME280;45631;51.962;5.974;2022-11-03T02:38:43;101122.72;;;9.78;100.00
59757;BME280;45631;51.962;5.974;2022-11-03T02:41:15;101121.72;;;9.80;100.00
59757;BME280;45631;51.962;5.974;2022-11-03T02:43:45;101117.28;;;9.81;100.00
59757;BME280;45631;51.962;5.974;2022-11-03T02:46:16;101116.69;;;9.76;100.00
59757;BME280;45631;51.962;5.974;2022-11-03T02:48:46;101103.66;;;9.74;100.00
59757;BME280;45631;51.962;5.974;2022-11-03T02:51:14;101105.63;;;9.71;100.00
59757;BME280;45631;51.962;5.974;2022-11-03T02:53:47;101105.28;;;9.77;100.00
59757;BME280;45631;51.962;5.974;2022-11-03T02:56:22;101100.00;;;9.77;100.00
59757;BME280;45631;51.962;5.974;2022-11-03T02:58:55;101085.78;;;9.81;100.00
59757;BME280;45631;51.962;5.974;2022-11-03T03:01:31;101084.44;;;9.74;100.00
59757;BME280;45631;51.962;5.974;2022-11-03T03:04:06;101087.66;;;9.79;100.00
59757;BME280;45631;51.962;5.974;2022-11-03T03:06:40;101082.47;;;9.77;100.00
59757;BME280;45631;51.962;5.974;2022-11-03T03:09:15;101083.81;;;9.85;100.00
59757;BME280;45631;51.962;5.974;2022-11-03T03:11:48;101088.31;;;9.82;100.00
59757;BME280;45631;51.962;5.974;2022-11-03T03:14:20;101080.09;;;9.89;100.00
59757;BME280;45631;51.962;5.974;2022-11-03T03:16:57;101086.53;;;9.83;100.00
59757;BME280;45631;51.962;5.974;2022-11-03T03:19:37;101085.59;;;9.84;100.00
59757;BME280;45631;51.962;5.974;2022-11-03T03:22:14;101085.59;;;9.84;100.00
59757;BME280;45631;51.962;5.974;2022-11-03T03:24:51;101078.72;;;9.81;100.00
59757;BME280;45631;51.962;5.974;2022-11-03T03:27:23;101065.59;;;9.81;100.00
59757;BME280;45631;51.962;5.974;2022-11-03T03:29:53;101070.69;;;9.85;100.00
59757;BME280;45631;51.962;5.974;2022-11-03T03:32:24;101073.13;;;9.88;100.00
59757;BME280;45631;51.962;5.974;2022-11-03T03:34:55;101068.97;;;9.84;100.00
59757;BME280;45631;51.962;5.974;2022-11-03T03:37:25;101064.84;;;9.79;100.00
59757;BME280;45631;51.962;5.974;2022-11-03T03:39:56;101065.34;;;9.86;100.00
59757;BME280;45631;51.962;5.974;2022-11-03T03:42:29;101060.28;;;9.83;100.00
59757;BME280;45631;51.962;5.974;2022-11-03T03:44:58;101059.31;;;9.84;100.00
59757;BME280;45631;51.962;5.974;2022-11-03T03:47:29;101056.97;;;9.79;100.00
59757;BME280;45631;51.962;5.974;2022-11-03T03:49:59;101046.38;;;9.81;100.00
59757;BME280;45631;51.962;5.974;2022-11-03T03:52:28;101042.31;;;9.75;100.00
59757;BME280;45631;51.962;5.974;2022-11-03T03:54:56;101044.56;;;9.81;100.00
59757;BME280;45631;51.962;5.974;2022-11-03T03:57:25;101033.22;;;9.81;100.00
59757;BME280;45631;51.962;5.974;2022-11-03T03:59:55;101027.97;;;9.81;100.00
59757;BME280;45631;51.962;5.974;2022-11-03T04:02:23;101029.47;;;9.71;100.00
59757;BME280;45631;51.962;5.974;2022-11-03T04:04:54;101021.03;;;9.80;100.00
59757;BME280;45631;51.962;5.974;2022-11-03T04:07:24;101010.53;;;9.80;100.00
59757;BME280;45631;51.962;5.974;2022-11-03T04:10:10;101020.09;;;9.81;100.00
59757;BME280;45631;51.962;5.974;2022-11-03T04:12:39;101015.03;;;9.78;100.00
59757;BME280;45631;51.962;5.974;2022-11-03T04:15:26;101015.44;;;9.86;100.00
59757;BME280;45631;51.962;5.974;2022-11-03T04:18:23;101001.38;;;9.87;100.00
59757;BME280;45631;51.962;5.974;2022-11-03T04:21:12;101001.44;;;9.86;100.00
59757;BME280;45631;51.962;5.974;2022-11-03T04:23:58;100994.59;;;9.83;100.00
59757;BME280;45631;51.962;5.974;2022-11-03T04:26:27;100993.88;;;9.95;100.00
59757;BME280;45631;51.962;5.974;2022-11-03T04:28:56;100992.47;;;9.90;100.00
59757;BME280;45631;51.962;5.974;2022-11-03T04:31:30;101002.00;;;9.91;100.00
59757;BME280;45631;51.962;5.974;2022-11-03T04:34:03;100988.13;;;9.89;100.00
59757;BME280;45631;51.962;5.974;2022-11-03T04:36:31;100987.25;;;9.88;100.00
59757;BME280;45631;51.962;5.974;2022-11-03T04:38:59;100979.97;;;9.93;100.00
59757;BME280;45631;51.962;5.974;2022-11-03T04:41:31;100976.75;;;9.88;100.00
59757;BME280;45631;51.962;5.974;2022-11-03T04:43:59;100984.28;;;9.94;100.00
59757;BME280;45631;51.962;5.974;2022-11-03T04:46:30;100984.28;;;9.94;100.00
59757;BME280;45631;51.962;5.974;2022-11-03T04:48:59;100980.72;;;9.95;100.00
59757;BME280;45631;51.962;5.974;2022-11-03T04:51:30;100983.50;;;9.92;100.00
59757;BME280;45631;51.962;5.974;2022-11-03T04:54:02;100992.16;;;9.94;100.00
59757;BME280;45631;51.962;5.974;2022-11-03T04:56:30;100989.91;;;10.03;100.00
59757;BME280;45631;51.962;5.974;2022-11-03T04:58:59;100979.59;;;10.00;100.00
59757;BME280;45631;51.962;5.974;2022-11-03T05:01:28;100975.28;;;9.98;100.00
59757;BME280;45631;51.962;5.974;2022-11-03T05:03:57;100972.56;;;10.00;100.00
59757;BME280;45631;51.962;5.974;2022-11-03T05:06:28;100970.84;;;9.99;100.00
59757;BME280;45631;51.962;5.974;2022-11-03T05:08:59;100969.25;;;9.96;100.00
59757;BME280;45631;51.962;5.974;2022-11-03T05:11:30;100959.72;;;9.95;100.00
59757;BME280;45631;51.962;5.974;2022-11-03T05:14:00;100955.38;;;9.94;100.00
59757;BME280;45631;51.962;5.974;2022-11-03T05:16:31;100952.56;;;9.97;100.00
59757;BME280;45631;51.962;5.974;2022-11-03T05:19:00;100946.56;;;9.95;100.00
59757;BME280;45631;51.962;5.974;2022-11-03T05:21:29;100951.81;;;9.95;100.00
59757;BME280;45631;51.962;5.974;2022-11-03T05:24:01;100950.50;;;10.03;100.00
59757;BME280;45631;51.962;5.974;2022-11-03T05:26:32;100947.22;;;9.99;100.00
59757;BME280;45631;51.962;5.974;2022-11-03T05:29:02;100938.50;;;9.98;100.00
59757;BME280;45631;51.962;5.974;2022-11-03T05:31:35;100946.38;;;9.98;100.00
59757;BME280;45631;51.962;5.974;2022-11-03T05:34:30;100932.31;;;10.00;100.00
59757;BME280;45631;51.962;5.974;2022-11-03T05:36:59;100940.66;;;10.06;100.00
59757;BME280;45631;51.962;5.974;2022-11-03T05:39:34;100935.69;;;10.02;100.00
59757;BME280;45631;51.962;5.974;2022-11-03T05:42:15;100926.88;;;10.03;100.00
59757;BME280;45631;51.962;5.974;2022-11-03T05:44:47;100910.91;;;10.06;100.00
59757;BME280;45631;51.962;5.974;2022-11-03T05:47:20;100912.59;;;10.07;100.00
59757;BME280;45631;51.962;5.974;2022-11-03T05:49:52;100903.94;;;10.05;100.00
59757;BME280;45631;51.962;5.974;2022-11-03T05:52:23;100904.34;;;10.13;100.00
59757;BME280;45631;51.962;5.974;2022-11-03T05:54:53;100902.66;;;10.12;100.00
59757;BME280;45631;51.962;5.974;2022-11-03T05:57:25;100906.31;;;10.09;100.00
59757;BME280;45631;51.962;5.974;2022-11-03T05:59:55;100899.25;;;10.10;100.00
59757;BME280;45631;51.962;5.974;2022-11-03T06:02:35;100900.47;;;10.19;100.00
59757;BME280;45631;51.962;5.974;2022-11-03T06:05:11;100885.53;;;10.19;100.00
59757;BME280;45631;51.962;5.974;2022-11-03T06:07:42;100893.84;;;10.13;100.00
59757;BME280;45631;51.962;5.974;2022-11-03T06:10:23;100886.56;;;10.17;100.00
59757;BME280;45631;51.962;5.974;2022-11-03T06:12:53;100887.44;;;10.17;100.00
59757;BME280;45631;51.962;5.974;2022-11-03T06:15:31;100880.50;;;10.16;100.00
59757;BME280;45631;51.962;5.974;2022-11-03T06:18:11;100875.03;;;10.19;100.00
59757;BME280;45631;51.962;5.974;2022-11-03T06:20:41;100878.22;;;10.24;100.00
59757;BME280;45631;51.962;5.974;2022-11-03T06:23:14;100881.59;;;10.26;100.00
59757;BME280;45631;51.962;5.974;2022-11-03T06:25:45;100877.34;;;10.24;100.00
59757;BME280;45631;51.962;5.974;2022-11-03T06:28:17;100874.56;;;10.27;100.00
59757;BME280;45631;51.962;5.974;2022-11-03T06:30:46;100874.56;;;10.27;100.00
59757;BME280;45631;51.962;5.974;2022-11-03T06:33:22;100861.53;;;10.25;100.00
59757;BME280;45631;51.962;5.974;2022-11-03T06:35:54;100863.94;;;10.28;100.00
59757;BME280;45631;51.962;5.974;2022-11-03T06:38:27;100861.94;;;10.32;100.00
59757;BME280;45631;51.962;5.974;2022-11-03T06:40:57;100855.69;;;10.35;100.00
59757;BME280;45631;51.962;5.974;2022-11-03T06:43:31;100859.16;;;10.35;100.00
59757;BME280;45631;51.962;5.974;2022-11-03T06:46:08;100854.75;;;10.36;100.00
59757;BME280;45631;51.962;5.974;2022-11-03T06:48:41;100852.56;;;10.42;100.00
59757;BME280;45631;51.962;5.974;2022-11-03T06:51:15;100848.25;;;10.41;100.00
59757;BME280;45631;51.962;5.974;2022-11-03T06:53:46;100844.69;;;10.42;100.00
59757;BME280;45631;51.962;5.974;2022-11-03T06:56:17;100849.84;;;10.44;100.00
59757;BME280;45631;51.962;5.974;2022-11-03T06:58:47;100840.25;;;10.43;100.00
59757;BME280;45631;51.962;5.974;2022-11-03T07:01:18;100839.44;;;10.42;100.00
59757;BME280;45631;51.962;5.974;2022-11-03T07:03:51;100843.66;;;10.45;100.00
59757;BME280;45631;51.962;5.974;2022-11-03T07:06:25;100841.25;;;10.55;100.00
59757;BME280;45631;51.962;5.974;2022-11-03T07:08:58;100838.19;;;10.48;100.00
59757;BME280;45631;51.962;5.974;2022-11-03T07:11:28;100840.72;;;10.49;100.00
59757;BME280;45631;51.962;5.974;2022-11-03T07:13:57;100836.94;;;10.54;100.00
59757;BME280;45631;51.962;5.974;2022-11-03T07:16:33;100832.09;;;10.47;100.00
59757;BME280;45631;51.962;5.974;2022-11-03T07:19:05;100832.91;;;10.48;100.00
59757;BME280;45631;51.962;5.974;2022-11-03T07:21:39;100833.84;;;10.47;100.00
59757;BME280;45631;51.962;5.974;2022-11-03T07:24:15;100826.25;;;10.57;100.00
59757;BME280;45631;51.962;5.974;2022-11-03T07:26:46;100831.50;;;10.57;100.00
59757;BME280;45631;51.962;5.974;2022-11-03T07:29:18;100837.03;;;10.52;100.00
59757;BME280;45631;51.962;5.974;2022-11-03T07:31:48;100829.81;;;10.56;100.00
59757;BME280;45631;51.962;5.974;2022-11-03T07:34:22;100836.44;;;10.61;100.00
59757;BME280;45631;51.962;5.974;2022-11-03T07:36:52;100832.22;;;10.59;100.00
59757;BME280;45631;51.962;5.974;2022-11-03T07:39:22;100822.16;;;10.65;100.00
59757;BME280;45631;51.962;5.974;2022-11-03T07:41:53;100823.75;;;10.68;100.00
59757;BME280;45631;51.962;5.974;2022-11-03T07:44:21;100827.19;;;10.69;100.00
59757;BME280;45631;51.962;5.974;2022-11-03T07:46:49;100822.94;;;10.80;100.00
59757;BME280;45631;51.962;5.974;2022-11-03T07:49:25;100819.91;;;10.87;100.00
59757;BME280;45631;51.962;5.974;2022-11-03T07:51:55;100820.63;;;10.89;100.00
59757;BME280;45631;51.962;5.974;2022-11-03T07:54:28;100809.38;;;10.87;100.00
59757;BME280;45631;51.962;5.974;2022-11-03T07:56:57;100807.56;;;10.87;100.00
59757;BME280;45631;51.962;5.974;2022-11-03T07:59:29;100807.69;;;10.98;100.00
59757;BME280;45631;51.962;5.974;2022-11-03T08:01:58;100805.28;;;10.95;100.00
59757;BME280;45631;51.962;5.974;2022-11-03T08:04:30;100804.34;;;10.96;100.00
59757;BME280;45631;51.962;5.974;2022-11-03T08:07:00;100794.53;;;10.98;100.00
59757;BME280;45631;51.962;5.974;2022-11-03T08:09:28;100786.75;;;10.97;100.00
59757;BME280;45631;51.962;5.974;2022-11-03T08:11:56;100791.06;;;11.11;100.00
59757;BME280;45631;51.962;5.974;2022-11-03T08:14:24;100783.28;;;11.09;100.00
59757;BME280;45631;51.962;5.974;2022-11-03T08:16:53;100796.13;;;11.14;100.00
59757;BME280;45631;51.962;5.974;2022-11-03T08:19:21;100793.69;;;11.11;100.00
59757;BME280;45631;51.962;5.974;2022-11-03T08:21:50;100781.19;;;11.14;100.00
59757;BME280;45631;51.962;5.974;2022-11-03T08:24:18;100781.50;;;11.23;100.00
59757;BME280;45631;51.962;5.974;2022-11-03T08:26:46;100786.75;;;11.23;100.00
59757;BME280;45631;51.962;5.974;2022-11-03T08:29:17;100779.50;;;11.26;100.00
59757;BME280;45631;51.962;5.974;2022-11-03T08:31:46;100783.06;;;11.25;100.00
59757;BME280;45631;51.962;5.974;2022-11-03T08:34:14;100774.53;;;11.35;100.00
59757;BME280;45631;51.962;5.974;2022-11-03T08:36:42;100769.88;;;11.38;100.00
59757;BME280;45631;51.962;5.974;2022-11-03T08:39:12;100774.00;;;11.42;100.00
59757;BME280;45631;51.962;5.974;2022-11-03T08:41:40;100768.84;;;11.41;100.00
59757;BME280;45631;51.962;5.974;2022-11-03T08:44:08;100766.09;;;11.42;100.00
59757;BME280;45631;51.962;5.974;2022-11-03T08:46:36;100754.09;;;11.51;100.00
59757;BME280;45631;51.962;5.974;2022-11-03T08:49:04;100747.13;;;11.50;100.00
59757;BME280;45631;51.962;5.974;2022-11-03T08:51:32;100737.00;;;11.57;100.00
59757;BME280;45631;51.962;5.974;2022-11-03T08:54:03;100731.50;;;11.60;100.00
59757;BME280;45631;51.962;5.974;2022-11-03T08:56:33;100732.44;;;11.72;100.00
59757;BME280;45631;51.962;5.974;2022-11-03T08:59:01;100719.25;;;11.72;100.00
59757;BME280;45631;51.962;5.974;2022-11-03T09:01:29;100717.56;;;11.71;100.00
59757;BME280;45631;51.962;5.974;2022-11-03T09:03:57;100712.72;;;11.77;100.00
59757;BME280;45631;51.962;5.974;2022-11-03T09:06:25;100704.47;;;11.82;100.00
59757;BME280;45631;51.962;5.974;2022-11-03T09:08:53;100703.63;;;11.81;100.00
59757;BME280;45631;51.962;5.974;2022-11-03T09:11:43;100686.75;;;11.84;100.00
59757;BME280;45631;51.962;5.974;2022-11-03T09:14:12;100688.09;;;11.90;100.00
59757;BME280;45631;51.962;5.974;2022-11-03T09:16:40;100684.19;;;11.95;100.00
59757;BME280;45631;51.962;5.974;2022-11-03T09:19:10;100680.78;;;12.06;100.00
59757;BME280;45631;51.962;5.974;2022-11-03T09:21:38;100675.78;;;12.14;100.00
59757;BME280;45631;51.962;5.974;2022-11-03T09:24:06;100659.84;;;12.16;100.00
59757;BME280;45631;51.962;5.974;2022-11-03T09:26:35;100656.25;;;12.17;100.00
59757;BME280;45631;51.962;5.974;2022-11-03T09:29:05;100651.94;;;12.16;100.00
59757;BME280;45631;51.962;5.974;2022-11-03T09:31:33;100637.69;;;12.18;100.00
59757;BME280;45631;51.962;5.974;2022-11-03T09:34:01;100632.34;;;12.31;100.00
59757;BME280;45631;51.962;5.974;2022-11-03T09:36:30;100638.81;;;12.39;100.00
59757;BME280;45631;51.962;5.974;2022-11-03T09:38:58;100627.81;;;12.45;100.00
59757;BME280;45631;51.962;5.974;2022-11-03T09:41:26;100627.94;;;12.55;100.00
59757;BME280;45631;51.962;5.974;2022-11-03T09:44:15;100618.59;;;12.62;100.00
59757;BME280;45631;51.962;5.974;2022-11-03T09:46:44;100610.47;;;12.76;100.00
59757;BME280;45631;51.962;5.974;2022-11-03T09:49:14;100602.41;;;12.89;100.00
59757;BME280;45631;51.962;5.974;2022-11-03T09:51:43;100586.09;;;12.95;100.00
59757;BME280;45631;51.962;5.974;2022-11-03T09:54:13;100586.91;;;12.96;100.00
59757;BME280;45631;51.962;5.974;2022-11-03T09:56:43;100578.53;;;12.91;100.00
59757;BME280;45631;51.962;5.974;2022-11-03T09:59:16;100579.00;;;12.96;100.00
59757;BME280;45631;51.962;5.974;2022-11-03T10:01:46;100558.72;;;12.96;100.00
59757;BME280;45631;51.962;5.974;2022-11-03T10:04:16;100561.34;;;13.08;100.00
59757;BME280;45631;51.962;5.974;2022-11-03T10:06:47;100557.72;;;13.09;100.00
59757;BME280;45631;51.962;5.974;2022-11-03T10:09:16;100559.16;;;13.13;100.00
59757;BME280;45631;51.962;5.974;2022-11-03T10:11:46;100540.25;;;13.08;100.00
59757;BME280;45631;51.962;5.974;2022-11-03T10:14:17;100547.03;;;13.22;100.00
59757;BME280;45631;51.962;5.974;2022-11-03T10:16:51;100545.59;;;13.17;100.00
59757;BME280;45631;51.962;5.974;2022-11-03T10:19:20;100538.63;;;13.16;100.00
59757;BME280;45631;51.962;5.974;2022-11-03T10:21:48;100532.75;;;13.24;100.00
59757;BME280;45631;51.962;5.974;2022-11-03T10:24:16;100539.00;;;13.23;100.00
59757;BME280;45631;51.962;5.974;2022-11-03T10:26:46;100529.38;;;13.22;100.00
59757;BME280;45631;51.962;5.974;2022-11-03T10:29:21;100515.56;;;13.30;100.00
59757;BME280;45631;51.962;5.974;2022-11-03T10:31:51;100518.81;;;13.33;100.00
59757;BME280;45631;51.962;5.974;2022-11-03T10:34:25;100498.88;;;13.41;100.00
59757;BME280;45631;51.962;5.974;2022-11-03T10:37:10;100512.53;;;13.34;100.00
59757;BME280;45631;51.962;5.974;2022-11-03T10:39:38;100498.63;;;13.32;100.00
59757;BME280;45631;51.962;5.974;2022-11-03T10:42:16;100491.31;;;13.36;100.00
59757;BME280;45631;51.962;5.974;2022-11-03T10:44:46;100480.50;;;13.39;100.00
59757;BME280;45631;51.962;5.974;2022-11-03T10:47:30;100474.63;;;13.35;100.00
59757;BME280;45631;51.962;5.974;2022-11-03T10:50:04;100468.25;;;13.38;100.00
59757;BME280;45631;51.962;5.974;2022-11-03T10:52:39;100462.63;;;13.31;100.00
59757;BME280;45631;51.962;5.974;2022-11-03T10:55:07;100449.63;;;13.40;100.00
59757;BME280;45631;51.962;5.974;2022-11-03T10:57:39;100457.06;;;13.34;100.00
59757;BME280;45631;51.962;5.974;2022-11-03T11:00:12;100450.38;;;13.42;100.00
59757;BME280;45631;51.962;5.974;2022-11-03T11:02:41;100438.56;;;13.46;100.00
59757;BME280;45631;51.962;5.974;2022-11-03T11:05:13;100429.22;;;13.42;100.00
59757;BME280;45631;51.962;5.974;2022-11-03T11:07:43;100422.00;;;13.44;100.00
59757;BME280;45631;51.962;5.974;2022-11-03T11:10:14;100410.16;;;13.38;100.00
59757;BME280;45631;51.962;5.974;2022-11-03T11:13:03;100400.69;;;13.35;100.00
59757;BME280;45631;51.962;5.974;2022-11-03T11:15:39;100403.31;;;13.35;100.00
59757;BME280;45631;51.962;5.974;2022-11-03T11:18:08;100400.41;;;13.39;100.00
59757;BME280;45631;51.962;5.974;2022-11-03T11:20:37;100394.75;;;13.43;100.00
59757;BME280;45631;51.962;5.974;2022-11-03T11:35:15;100378.81;;;13.76;100.00
59757;BME280;45631;51.962;5.974;2022-11-03T11:37:43;100375.31;;;13.75;100.00
59757;BME280;45631;51.962;5.974;2022-11-03T11:40:13;100376.72;;;13.79;100.00
59757;BME280;45631;51.962;5.974;2022-11-03T11:46:23;100381.94;;;13.91;100.00
59757;BME280;45631;51.962;5.974;2022-11-03T11:49:16;100370.69;;;13.98;100.00
59757;BME280;45631;51.962;5.974;2022-11-03T11:51:45;100369.16;;;14.06;100.00
59757;BME280;45631;51.962;5.974;2022-11-03T11:54:16;100359.88;;;14.11;100.00
59757;BME280;45631;51.962;5.974;2022-11-03T11:56:47;100353.53;;;14.24;100.00
59757;BME280;45631;51.962;5.974;2022-11-03T11:59:18;100353.25;;;14.36;100.00
59757;BME280;45631;51.962;5.974;2022-11-03T12:01:53;100347.97;;;14.36;100.00
59757;BME280;45631;51.962;5.974;2022-11-03T12:04:26;100340.47;;;14.42;100.00
59757;BME280;45631;51.962;5.974;2022-11-03T12:06:57;100322.81;;;14.52;100.00
59757;BME280;45631;51.962;5.974;2022-11-03T12:09:26;100322.09;;;14.60;100.00
59757;BME280;45631;51.962;5.974;2022-11-03T12:11:56;100312.63;;;14.57;100.00
59757;BME280;45631;51.962;5.974;2022-11-03T12:14:35;100298.41;;;14.58;100.00
59757;BME280;45631;51.962;5.974;2022-11-03T12:17:31;100303.56;;;14.60;100.00
59757;BME280;45631;51.962;5.974;2022-11-03T12:20:33;100297.03;;;14.74;100.00
59757;BME280;45631;51.962;5.974;2022-11-03T12:23:02;100285.91;;;14.70;100.00
59757;BME280;45631;51.962;5.974;2022-11-03T12:25:33;100274.88;;;14.84;100.00
59757;BME280;45631;51.962;5.974;2022-11-03T12:28:02;100269.06;;;14.81;100.00
59757;BME280;45631;51.962;5.974;2022-11-03T12:30:31;100269.31;;;14.78;100.00
59757;BME280;45631;51.962;5.974;2022-11-03T12:33:05;100265.41;;;14.82;100.00
59757;BME280;45631;51.962;5.974;2022-11-03T12:35:36;100250.78;;;14.87;100.00
59757;BME280;45631;51.962;5.974;2022-11-03T12:38:04;100233.91;;;14.88;100.00
59757;BME280;45631;51.962;5.974;2022-11-03T12:40:32;100229.28;;;15.00;100.00
59757;BME280;45631;51.962;5.974;2022-11-03T12:43:00;100221.19;;;15.02;100.00
59757;BME280;45631;51.962;5.974;2022-11-03T12:45:28;100227.59;;;15.09;100.00
59757;BME280;45631;51.962;5.974;2022-11-03T12:47:56;100229.25;;;15.10;100.00
59757;BME280;45631;51.962;5.974;2022-11-03T12:50:24;100236.63;;;15.16;100.00
59757;BME280;45631;51.962;5.974;2022-11-03T12:52:54;100224.34;;;15.25;100.00
59757;BME280;45631;51.962;5.974;2022-11-03T12:55:22;100221.97;;;15.22;100.00
59757;BME280;45631;51.962;5.974;2022-11-03T12:57:50;100220.56;;;15.28;100.00
59757;BME280;45631;51.962;5.974;2022-11-03T13:00:21;100212.25;;;15.13;100.00
59757;BME280;45631;51.962;5.974;2022-11-03T13:02:50;100201.50;;;15.14;100.00
59757;BME280;45631;51.962;5.974;2022-11-03T13:05:20;100199.56;;;15.16;100.00
59757;BME280;45631;51.962;5.974;2022-11-03T13:07:48;100201.34;;;15.16;100.00
59757;BME280;45631;51.962;5.974;2022-11-03T13:10:18;100189.44;;;15.02;100.00
59757;BME280;45631;51.962;5.974;2022-11-03T13:12:46;100179.38;;;15.06;100.00
59757;BME280;45631;51.962;5.974;2022-11-03T13:15:15;100171.84;;;15.11;100.00
59757;BME280;45631;51.962;5.974;2022-11-03T13:17:43;100168.50;;;15.09;100.00
59757;BME280;45631;51.962;5.974;2022-11-03T13:20:32;100163.31;;;15.17;100.00
59757;BME280;45631;51.962;5.974;2022-11-03T13:23:00;100154.03;;;15.31;100.00